Time;durP1;ratioP1;P1;durP2;ratioP2;P2;SDS_P1;SDS_P2;PMS_P1;PMS_P2;Temp;Humidity;BMP_temperature;BMP_pressure;BME280_temperature;BME280_humidity;BME280_pressure;Samples;Min_cycle;Max_cycle;Signal;HPM_P1;HPM_P2
2022/06/10 00:00:35;;;;;;;31.60;24.48;;;16.90;99.90;;;;;;5152202;27;20030;-66
2022/06/10 00:03:01;;;;;;;34.58;25.08;;;16.90;99.90;;;;;;5142618;27;20021;-67
2022/06/10 00:05:30;;;;;;;32.75;25.00;;;16.90;99.90;;;;;;5149710;27;20030;-67
2022/06/10 00:07:57;;;;;;;36.08;27.35;;;17.00;99.90;;;;;;5156104;27;20027;-68
2022/06/10 00:10:26;;;;;;;37.55;28.27;;;17.00;99.90;;;;;;5142815;27;20031;-67
2022/06/10 00:12:52;;;;;;;40.67;30.40;;;17.00;99.90;;;;;;5143147;27;20051;-67
2022/06/10 00:15:18;;;;;;;45.33;31.38;;;17.00;99.90;;;;;;5137264;27;20026;-68
2022/06/10 00:17:45;;;;;;;44.78;31.52;;;17.00;99.90;;;;;;5152712;27;20015;-68
2022/06/10 00:20:13;;;;;;;42.10;29.17;;;17.00;99.90;;;;;;5153467;27;20038;-68
2022/06/10 00:22:39;;;;;;;41.47;28.88;;;17.00;99.90;;;;;;5155944;27;20377;-67
2022/06/10 00:25:05;;;;;;;38.05;28.77;;;17.00;99.90;;;;;;5153061;27;20514;-67
2022/06/10 00:27:31;;;;;;;41.70;29.58;;;17.00;99.90;;;;;;5152641;27;20025;-67
2022/06/10 00:29:57;;;;;;;36.67;24.40;;;17.00;99.90;;;;;;5155719;27;20109;-68
2022/06/10 00:32:23;;;;;;;29.77;21.63;;;16.90;99.90;;;;;;5152228;27;20038;-67
2022/06/10 00:34:48;;;;;;;28.80;19.77;;;16.90;99.90;;;;;;5153634;27;20023;-68
2022/06/10 00:37:15;;;;;;;26.92;18.83;;;16.90;99.90;;;;;;5155658;27;20042;-68
2022/06/10 00:39:40;;;;;;;24.67;18.17;;;16.90;99.90;;;;;;5151234;27;20030;-68
2022/06/10 00:42:07;;;;;;;25.42;19.05;;;16.90;99.90;;;;;;5154419;27;20042;-68
2022/06/10 00:44:36;;;;;;;25.48;18.77;;;16.80;99.90;;;;;;5154914;27;20118;-68
2022/06/10 00:47:20;;;;;;;26.25;18.48;;;16.80;99.90;;;;;;5142207;27;20064;-68
2022/06/10 00:49:54;;;;;;;22.45;17.35;;;16.90;99.90;;;;;;5125977;27;20026;-68
2022/06/10 00:52:31;;;;;;;23.90;17.50;;;16.90;99.90;;;;;;5119980;27;20031;-68
2022/06/10 00:54:58;;;;;;;21.60;17.48;;;16.80;99.90;;;;;;5105021;27;20034;-68
2022/06/10 00:57:31;;;;;;;22.80;17.67;;;16.90;99.90;;;;;;5120863;27;20538;-68
2022/06/10 01:00:06;;;;;;;24.60;16.77;;;16.90;99.90;;;;;;5121313;27;20470;-69
2022/06/10 01:02:35;;;;;;;20.83;16.40;;;16.90;99.90;;;;;;5120267;27;20028;-69
2022/06/10 01:05:03;;;;;;;22.30;17.23;;;16.90;99.90;;;;;;5120611;27;21335;-69
2022/06/10 01:07:40;;;;;;;21.17;15.90;;;16.90;99.90;;;;;;5122230;27;20031;-68
2022/06/10 01:10:09;;;;;;;25.60;19.00;;;16.90;99.90;;;;;;5118227;27;20016;-69
2022/06/10 01:13:26;;;;;;;27.05;21.10;;;16.90;99.90;;;;;;5121874;27;20019;-69
2022/06/10 01:16:10;;;;;;;33.15;25.35;;;16.90;99.90;;;;;;5016531;28;20110;-69
2022/06/10 01:18:49;;;;;;;35.17;26.42;;;16.80;99.90;;;;;;5095805;27;20140;-68
2022/06/10 01:21:26;;;;;;;36.20;25.85;;;16.80;99.90;;;;;;5120395;27;20023;-69
2022/06/10 01:24:14;;;;;;;33.35;25.48;;;16.80;99.90;;;;;;5119893;27;20103;-69
2022/06/10 01:30:35;;;;;;;36.20;24.77;;;16.80;99.90;;;;;;5118095;27;20030;-69
2022/06/10 01:33:09;;;;;;;30.63;22.77;;;16.80;99.90;;;;;;5121475;27;20394;-69
2022/06/10 01:35:54;;;;;;;30.60;23.95;;;16.80;99.90;;;;;;5121607;27;20030;-68
2022/06/10 01:38:23;;;;;;;26.20;21.10;;;16.80;99.90;;;;;;5121069;27;20114;-69
2022/06/10 01:41:01;;;;;;;28.35;22.17;;;16.80;99.90;;;;;;5118162;27;20069;-69
2022/06/10 01:43:57;;;;;;;29.55;22.60;;;16.80;99.90;;;;;;5117704;27;20031;-69
2022/06/10 01:46:37;;;;;;;27.23;21.80;;;16.70;99.90;;;;;;5121791;27;20484;-69
2022/06/10 01:49:06;;;;;;;27.90;21.25;;;16.80;99.90;;;;;;5121544;27;20027;-67
2022/06/10 01:51:45;;;;;;;30.08;22.63;;;16.80;99.90;;;;;;5120737;27;20103;-69
2022/06/10 01:54:38;;;;;;;31.38;23.05;;;16.80;99.90;;;;;;5118270;27;20127;-69
2022/06/10 01:57:11;;;;;;;30.30;22.73;;;16.80;99.90;;;;;;5121747;27;20489;-69
2022/06/10 01:59:44;;;;;;;32.58;23.83;;;16.80;99.90;;;;;;5121741;27;20538;-69
2022/06/10 02:02:14;;;;;;;29.70;21.88;;;16.70;99.90;;;;;;5117439;27;20019;-69
2022/06/10 02:04:48;;;;;;;28.67;21.30;;;16.60;99.90;;;;;;5118499;27;20680;-68
2022/06/10 02:07:19;;;;;;;26.88;20.33;;;16.60;99.90;;;;;;5120155;27;20019;-70
2022/06/10 02:09:56;;;;;;;29.88;20.83;;;16.50;99.90;;;;;;5117859;27;20471;-68
2022/06/10 02:12:27;;;;;;;27.33;20.33;;;16.50;99.90;;;;;;5119844;27;20034;-66
2022/06/10 02:14:59;;;;;;;25.05;20.05;;;16.50;99.90;;;;;;5120497;27;20559;-69
2022/06/10 02:17:34;;;;;;;24.98;18.80;;;16.50;99.90;;;;;;5117335;27;20016;-69
2022/06/10 02:20:00;;;;;;;28.40;19.20;;;16.60;99.90;;;;;;5119415;27;20027;-69
2022/06/10 02:22:37;;;;;;;24.73;19.92;;;16.50;99.90;;;;;;5121356;27;20414;-69
2022/06/10 02:25:11;;;;;;;25.80;20.23;;;16.60;99.90;;;;;;5121736;27;20142;-69
2022/06/10 02:27:41;;;;;;;25.27;19.55;;;16.60;99.90;;;;;;5121778;27;20028;-69
2022/06/10 02:30:10;;;;;;;24.83;19.67;;;16.60;99.90;;;;;;5117759;27;20023;-69
2022/06/10 02:32:39;;;;;;;25.42;19.35;;;16.60;99.90;;;;;;5119849;27;20045;-68
2022/06/10 02:35:07;;;;;;;30.17;19.27;;;16.60;99.90;;;;;;5117041;27;20115;-68
2022/06/10 02:38:05;;;;;;;26.48;19.13;;;16.60;99.90;;;;;;5120417;27;20047;-69
2022/06/10 02:40:36;;;;;;;29.17;20.20;;;16.60;99.90;;;;;;5118848;27;20023;-68
2022/06/10 02:43:06;;;;;;;28.20;21.20;;;16.60;99.90;;;;;;5119662;27;20764;-69
2022/06/10 02:45:32;;;;;;;27.88;21.33;;;16.60;99.90;;;;;;5093499;28;20035;-68
2022/06/10 02:48:13;;;;;;;27.88;21.83;;;16.60;99.90;;;;;;5121388;28;20106;-68
2022/06/10 02:50:39;;;;;;;30.23;22.65;;;16.60;99.90;;;;;;5099683;28;20247;-69
2022/06/10 02:53:07;;;;;;;29.13;20.65;;;16.60;99.90;;;;;;5112728;28;20043;-69
2022/06/10 02:55:33;;;;;;;30.55;22.27;;;16.50;99.90;;;;;;5130435;28;20043;-69
2022/06/10 03:01:33;;;;;;;29.48;21.67;;;16.70;99.90;;;;;;5131070;28;20054;-69
2022/06/10 03:03:59;;;;;;;32.13;23.23;;;16.60;99.90;;;;;;5102344;28;20027;-69
2022/06/10 03:06:41;;;;;;;32.28;24.15;;;16.70;99.90;;;;;;5130782;28;20407;-70
2022/06/10 03:09:24;;;;;;;33.53;24.83;;;16.60;99.90;;;;;;5130755;28;20019;-69
2022/06/10 03:11:58;;;;;;;32.08;23.83;;;16.60;99.90;;;;;;5130559;28;20490;-69
2022/06/10 03:14:41;;;;;;;33.75;25.00;;;16.60;99.90;;;;;;5133795;27;20037;-69
2022/06/10 03:17:23;;;;;;;32.78;24.08;;;16.70;99.90;;;;;;5134820;27;20075;-69
2022/06/10 03:20:01;;;;;;;30.45;23.80;;;16.70;99.90;;;;;;5134879;27;20382;-69
2022/06/10 03:22:30;;;;;;;29.25;24.13;;;16.60;99.90;;;;;;5134508;27;20102;-69
2022/06/10 03:25:14;;;;;;;34.75;22.77;;;16.60;99.90;;;;;;5134650;27;20718;-69
2022/06/10 03:28:05;;;;;;;31.60;20.35;;;16.60;99.90;;;;;;5134626;27;20084;-69
2022/06/10 03:30:36;;;;;;;35.70;20.83;;;16.60;99.90;;;;;;5134813;27;20027;-68
2022/06/10 03:33:11;;;;;;;24.10;19.75;;;16.60;99.90;;;;;;5134925;27;20050;-69
2022/06/10 03:36:14;;;;;;;33.92;19.35;;;16.50;99.90;;;;;;5134628;27;20152;-69
2022/06/10 03:38:47;;;;;;;27.50;18.83;;;16.50;99.90;;;;;;5070583;28;20024;-70
2022/06/10 03:41:30;;;;;;;22.92;17.30;;;16.60;99.90;;;;;;5125567;27;20117;-69
2022/06/10 03:43:57;;;;;;;23.13;16.73;;;16.60;99.90;;;;;;5134363;27;20035;-69
2022/06/10 03:46:26;;;;;;;22.95;15.50;;;16.60;99.90;;;;;;5134545;27;20027;-69
2022/06/10 03:48:54;;;;;;;22.80;14.70;;;16.60;99.90;;;;;;5134157;27;20031;-69
2022/06/10 03:51:21;;;;;;;21.10;13.93;;;16.60;99.90;;;;;;5151972;27;20485;-68
2022/06/10 03:53:47;;;;;;;;;;;16.60;99.90;;;;;;5155020;27;20051;-69
2022/06/10 03:56:19;;;;;;;21.35;13.88;;;16.60;99.90;;;;;;5154716;27;20390;-69
2022/06/10 03:58:45;;;;;;;19.20;13.85;;;16.50;99.90;;;;;;5154766;27;20023;-69
2022/06/10 04:01:11;;;;;;;20.08;14.93;;;16.50;99.90;;;;;;5154673;27;20027;-69
2022/06/10 04:03:37;;;;;;;21.95;14.43;;;16.60;99.90;;;;;;5154696;27;20114;-69
2022/06/10 04:06:03;;;;;;;22.17;13.32;;;16.60;99.90;;;;;;5154783;27;20114;-69
2022/06/10 04:08:29;;;;;;;18.98;14.38;;;16.60;99.90;;;;;;5154566;27;20050;-69
2022/06/10 04:10:55;;;;;;;24.30;15.20;;;16.60;99.90;;;;;;5154525;27;20046;-69
2022/06/10 04:13:21;;;;;;;22.08;15.40;;;16.60;99.90;;;;;;5154344;27;20019;-70
2022/06/10 04:15:47;;;;;;;24.98;15.60;;;16.60;99.90;;;;;;5154174;27;20030;-69
2022/06/10 04:18:13;;;;;;;22.98;14.18;;;16.60;99.90;;;;;;5154199;27;20098;-69
2022/06/10 04:20:40;;;;;;;19.85;13.80;;;16.60;99.90;;;;;;5154158;27;20105;-69
2022/06/10 04:23:06;;;;;;;24.38;15.57;;;16.60;99.90;;;;;;5154002;27;20023;-69
2022/06/10 04:25:34;;;;;;;26.88;16.65;;;16.60;99.90;;;;;;5153103;27;20549;-68
2022/06/10 04:28:00;;;;;;;21.42;16.60;;;16.50;99.90;;;;;;5154066;27;20113;-69
2022/06/10 04:30:30;;;;;;;24.30;17.30;;;16.60;99.90;;;;;;5135557;27;20033;-68
2022/06/10 04:32:56;;;;;;;21.08;17.92;;;16.60;99.90;;;;;;5154135;27;20062;-69
2022/06/10 04:35:24;;;;;;;25.55;18.10;;;16.60;99.90;;;;;;5153840;27;20066;-69
2022/06/10 04:37:51;;;;;;;25.65;17.80;;;16.60;99.90;;;;;;5153823;27;20110;-69
2022/06/10 04:40:18;;;;;;;24.88;17.92;;;16.60;99.90;;;;;;5153795;27;20030;-68
2022/06/10 04:42:48;;;;;;;30.85;19.05;;;16.60;99.90;;;;;;5153799;27;20025;-68
2022/06/10 04:45:18;;;;;;;28.67;20.35;;;16.60;99.90;;;;;;5153644;27;20381;-67
2022/06/10 04:47:44;;;;;;;27.27;20.42;;;16.60;99.90;;;;;;5153821;27;20022;-68
2022/06/10 04:50:15;;;;;;;28.92;19.48;;;16.60;99.90;;;;;;5153553;27;20374;-68
2022/06/10 04:52:41;;;;;;;30.98;19.80;;;16.60;99.90;;;;;;5153344;27;20081;-68
2022/06/10 04:55:08;;;;;;;34.38;21.80;;;16.60;99.90;;;;;;5153514;27;20048;-66
2022/06/10 04:57:35;;;;;;;31.83;23.02;;;16.60;99.90;;;;;;5153397;27;20027;-69
2022/06/10 05:00:01;;;;;;;30.27;21.30;;;16.60;99.90;;;;;;5153464;27;20108;-68
2022/06/10 05:02:27;;;;;;;29.98;21.38;;;16.60;99.90;;;;;;5153147;27;20015;-68
2022/06/10 05:04:55;;;;;;;35.95;24.42;;;16.50;99.90;;;;;;5134955;27;20042;-67
2022/06/10 05:07:20;;;;;;;34.28;23.00;;;16.60;99.90;;;;;;5153080;27;20025;-67
2022/06/10 05:09:46;;;;;;;35.00;25.00;;;16.50;99.90;;;;;;5153234;27;20031;-67
2022/06/10 05:12:12;;;;;;;42.53;24.70;;;16.60;99.90;;;;;;5153344;27;20106;-68
2022/06/10 05:14:37;;;;;;;38.08;24.92;;;16.60;99.90;;;;;;5153056;27;20492;-68
2022/06/10 05:17:03;;;;;;;37.20;25.52;;;16.50;99.90;;;;;;5153337;27;20042;-66
2022/06/10 05:19:29;;;;;;;40.58;27.20;;;16.60;99.90;;;;;;5152873;27;20466;-66
2022/06/10 05:21:56;;;;;;;47.83;29.17;;;16.60;99.90;;;;;;5152931;27;20444;-66
2022/06/10 05:24:22;;;;;;;38.92;27.33;;;16.60;99.90;;;;;;5153425;27;20038;-66
2022/06/10 05:26:47;;;;;;;44.33;28.23;;;16.60;99.90;;;;;;5152761;27;20022;-66
2022/06/10 05:29:13;;;;;;;43.53;29.88;;;16.60;99.90;;;;;;5153145;27;20075;-66
2022/06/10 05:31:39;;;;;;;37.95;27.70;;;16.60;99.90;;;;;;5152908;27;20027;-66
2022/06/10 05:36:49;;;;;;;42.47;28.85;;;16.60;99.90;;;;;;5151429;27;20033;-65
2022/06/10 05:39:14;;;;;;;44.95;29.33;;;16.70;99.90;;;;;;5152604;27;20015;-66
2022/06/10 05:44:25;;;;;;;43.08;28.35;;;16.70;99.90;;;;;;5152950;27;20037;-66
2022/06/10 05:46:52;;;;;;;37.70;29.52;;;16.70;99.90;;;;;;5152644;27;20114;-65
2022/06/10 05:49:18;;;;;;;38.88;28.27;;;16.70;99.90;;;;;;5133476;27;20054;-65
2022/06/10 05:51:44;;;;;;;49.28;30.88;;;16.70;99.90;;;;;;5131582;27;20492;-63
2022/06/10 05:54:10;;;;;;;45.30;30.95;;;16.70;99.90;;;;;;5113137;27;20443;-64
2022/06/10 05:56:36;;;;;;;41.92;29.13;;;16.70;99.90;;;;;;5131367;27;20035;-63
2022/06/10 05:59:01;;;;;;;39.53;29.40;;;16.70;99.90;;;;;;5131466;27;20021;-66
2022/06/10 06:01:28;;;;;;;44.85;29.92;;;16.80;99.90;;;;;;5131576;27;20379;-65
2022/06/10 06:03:54;;;;;;;40.37;29.50;;;16.80;99.90;;;;;;5131609;27;20015;-65
2022/06/10 06:06:20;;;;;;;45.47;31.60;;;16.80;99.90;;;;;;5131671;27;20103;-63
2022/06/10 06:08:46;;;;;;;47.08;30.92;;;16.80;99.90;;;;;;5131290;27;20022;-64
2022/06/10 06:11:12;;;;;;;43.60;27.83;;;16.80;99.90;;;;;;5112985;27;20749;-66
2022/06/10 06:13:38;;;;;;;40.75;28.73;;;16.80;99.90;;;;;;5131476;27;20035;-65
2022/06/10 06:16:04;;;;;;;46.20;28.95;;;16.80;99.90;;;;;;5131029;27;20038;-66
2022/06/10 06:18:30;;;;;;;41.22;27.60;;;16.70;99.90;;;;;;5131303;27;20034;-66
2022/06/10 06:20:56;;;;;;;42.30;28.63;;;16.80;99.90;;;;;;5131241;27;20031;-66
2022/06/10 06:23:21;;;;;;;37.25;28.85;;;16.80;99.90;;;;;;5131028;27;20080;-64
2022/06/10 06:25:47;;;;;;;39.53;28.20;;;16.80;99.90;;;;;;5130892;27;20031;-65
2022/06/10 06:28:12;;;;;;;44.95;31.20;;;16.70;99.90;;;;;;5112764;27;20102;-63
2022/06/10 06:30:38;;;;;;;37.80;27.90;;;16.70;99.90;;;;;;5131360;27;20034;-63
2022/06/10 06:33:06;;;;;;;39.40;26.90;;;16.70;99.90;;;;;;5130998;27;20479;-62
2022/06/10 06:35:34;;;;;;;40.38;29.00;;;16.80;99.90;;;;;;5130950;27;20039;-63
2022/06/10 06:38:03;;;;;;;40.22;27.63;;;16.70;99.90;;;;;;5130770;27;20845;-63
2022/06/10 06:40:30;;;;;;;40.95;27.13;;;16.70;99.90;;;;;;5130676;27;20038;-62
2022/06/10 06:42:56;;;;;;;41.87;28.60;;;16.80;99.90;;;;;;5129653;27;20019;-63
2022/06/10 06:45:23;;;;;;;45.28;28.80;;;16.70;99.90;;;;;;5130384;28;20049;-62
2022/06/10 06:47:51;;;;;;;39.75;26.15;;;16.80;99.90;;;;;;5130376;27;20023;-63
2022/06/10 06:50:23;;;;;;;45.17;28.25;;;16.80;99.90;;;;;;5139060;27;20135;-63
2022/06/10 06:52:49;;;;;;;40.10;26.85;;;16.80;99.90;;;;;;5151309;27;20039;-63
2022/06/10 06:55:15;;;;;;;48.28;28.67;;;16.70;99.90;;;;;;5150100;27;20181;-63
2022/06/10 06:57:44;;;;;;;39.85;26.05;;;16.70;99.90;;;;;;5150122;27;20098;-63
2022/06/10 07:00:14;;;;;;;46.63;29.50;;;16.70;99.90;;;;;;5149718;27;20027;-63
2022/06/10 07:02:39;;;;;;;48.15;29.67;;;16.80;99.90;;;;;;5131601;27;20075;-63
2022/06/10 07:05:06;;;;;;;41.17;28.40;;;16.80;99.90;;;;;;5149943;27;20035;-62
2022/06/10 07:07:32;;;;;;;43.63;28.95;;;16.80;99.90;;;;;;5150541;27;20712;-63
2022/06/10 07:09:58;;;;;;;45.30;30.25;;;16.80;99.90;;;;;;5151386;27;20041;-64
2022/06/10 07:12:25;;;;;;;49.50;30.52;;;16.80;99.90;;;;;;5150864;27;20022;-63
2022/06/10 07:14:50;;;;;;;40.38;28.33;;;16.80;99.90;;;;;;5132553;27;20442;-63
2022/06/10 07:17:17;;;;;;;43.67;27.98;;;16.80;99.90;;;;;;5151278;27;20053;-64
2022/06/10 07:19:43;;;;;;;36.57;26.80;;;16.90;99.90;;;;;;5151022;27;20041;-63
2022/06/10 07:22:09;;;;;;;43.33;25.05;;;16.90;99.90;;;;;;5151341;27;20619;-64
2022/06/10 07:24:35;;;;;;;41.78;26.00;;;16.90;99.90;;;;;;5151024;27;20046;-64
2022/06/10 07:27:01;;;;;;;30.83;22.55;;;16.90;99.90;;;;;;5151301;27;20034;-64
2022/06/10 07:29:27;;;;;;;40.80;24.53;;;16.80;99.90;;;;;;5151032;27;20027;-64
2022/06/10 07:31:53;;;;;;;32.67;23.88;;;16.90;99.90;;;;;;5151078;27;20321;-64
2022/06/10 07:34:19;;;;;;;38.00;24.52;;;16.90;99.90;;;;;;5151101;27;20031;-63
2022/06/10 07:36:45;;;;;;;32.65;23.08;;;17.00;99.90;;;;;;5151207;27;20494;-64
2022/06/10 07:39:11;;;;;;;34.72;25.52;;;17.00;99.90;;;;;;5151195;27;20022;-64
2022/06/10 07:44:23;;;;;;;33.25;24.08;;;17.00;99.90;;;;;;5151220;27;20061;-64
2022/06/10 07:46:53;;;;;;;33.65;24.75;;;17.00;99.90;;;;;;5151063;27;20049;-64
2022/06/10 07:49:19;;;;;;;40.13;25.13;;;17.00;99.90;;;;;;5150974;27;20107;-62
2022/06/10 07:51:46;;;;;;;32.92;24.05;;;17.10;99.90;;;;;;5130144;27;20479;-63
2022/06/10 07:54:12;;;;;;;39.80;23.48;;;17.00;99.90;;;;;;5130145;28;20106;-64
2022/06/10 07:56:39;;;;;;;30.30;23.55;;;17.00;99.90;;;;;;5130179;28;20107;-62
2022/06/10 07:59:05;;;;;;;;;;;17.00;99.90;;;;;;5130676;27;20387;-63
2022/06/10 08:01:31;;;;;;;40.58;24.77;;;17.00;99.90;;;;;;5132944;27;19966;-64
2022/06/10 08:03:57;;;;;;;34.85;25.80;;;17.00;99.90;;;;;;5133644;27;20023;-63
2022/06/10 08:06:24;;;;;;;35.95;24.88;;;17.00;99.90;;;;;;5133642;27;20058;-62
2022/06/10 08:08:51;;;;;;;36.80;25.15;;;17.10;99.90;;;;;;5133590;27;20023;-62
2022/06/10 08:11:19;;;;;;;35.30;24.35;;;17.10;99.90;;;;;;5133679;27;20034;-63
2022/06/10 08:13:45;;;;;;;;;;;17.20;99.90;;;;;;5134100;27;20027;-67
2022/06/10 08:16:11;;;;;;;35.97;25.73;;;17.20;99.90;;;;;;5133418;27;19911;-69
2022/06/10 08:18:37;;;;;;;35.73;25.77;;;17.20;99.90;;;;;;5133614;27;20026;-68
2022/06/10 08:23:49;;;;;;;32.35;25.20;;;17.20;99.90;;;;;;5133242;27;20510;-68
2022/06/10 08:26:15;;;;;;;30.95;24.80;;;17.20;99.90;;;;;;5133323;27;20023;-70
2022/06/10 08:28:43;;;;;;;34.13;24.27;;;17.20;99.90;;;;;;5132988;27;20023;-70
2022/06/10 08:31:09;;;;;;;30.42;22.77;;;17.20;99.90;;;;;;5133175;27;20047;-70
2022/06/10 08:33:35;;;;;;;31.23;24.52;;;17.20;99.90;;;;;;5133239;27;20597;-71
2022/06/10 08:36:03;;;;;;;32.95;24.55;;;17.30;99.90;;;;;;5132967;27;20063;-68
2022/06/10 08:38:29;;;;;;;33.65;24.42;;;17.30;99.90;;;;;;5133050;27;20016;-68
2022/06/10 08:41:13;;;;;;;33.40;23.77;;;17.20;99.90;;;;;;5132841;27;20035;-68
2022/06/10 08:43:41;;;;;;;28.20;23.30;;;17.20;99.90;;;;;;5133222;27;20034;-69
2022/06/10 08:46:22;;;;;;;33.00;24.98;;;17.20;99.90;;;;;;5114300;27;20057;-69
2022/06/10 08:49:03;;;;;;;35.47;25.17;;;17.20;99.90;;;;;;5132829;27;20030;-70
2022/06/10 08:51:49;;;;;;;30.23;24.27;;;17.20;99.90;;;;;;5132143;27;20415;-68
2022/06/10 08:54:25;;;;;;;30.98;23.90;;;17.20;99.90;;;;;;5112093;28;20474;-71
2022/06/10 08:56:55;;;;;;;33.42;25.25;;;17.20;99.90;;;;;;5112333;28;20467;-69
2022/06/10 08:59:28;;;;;;;33.17;25.25;;;17.20;99.90;;;;;;5112357;28;20467;-69
2022/06/10 09:02:23;;;;;;;31.20;23.58;;;17.20;99.90;;;;;;5112164;28;20027;-71
2022/06/10 09:05:08;;;;;;;32.47;25.20;;;17.20;99.90;;;;;;5110899;28;20011;-69
2022/06/10 09:07:59;;;;;;;32.47;23.58;;;17.20;99.90;;;;;;5112235;27;20433;-69
2022/06/10 09:11:02;;;;;;;33.92;23.48;;;17.20;99.90;;;;;;5111885;28;20023;-69
2022/06/10 09:13:39;;;;;;;34.88;23.63;;;17.30;99.90;;;;;;5096367;28;20039;-69
2022/06/10 09:16:32;;;;;;;30.55;22.10;;;17.30;99.90;;;;;;5110365;28;20368;-70
2022/06/10 09:19:09;;;;;;;27.45;22.35;;;17.40;99.90;;;;;;5111917;28;20390;-70
2022/06/10 09:22:04;;;;;;;29.48;21.60;;;17.40;99.90;;;;;;5111967;28;20727;-71
2022/06/10 09:24:48;;;;;;;26.25;20.42;;;17.40;99.90;;;;;;5112108;28;20110;-70
2022/06/10 09:27:28;;;;;;;27.70;21.05;;;17.40;99.90;;;;;;5111796;28;20019;-70
2022/06/10 09:29:57;;;;;;;27.45;20.63;;;17.50;99.90;;;;;;5111814;28;20024;-70
2022/06/10 09:32:35;;;;;;;29.48;21.42;;;17.50;99.90;;;;;;5110119;28;20719;-70
2022/06/10 09:35:25;;;;;;;27.20;21.95;;;17.50;99.90;;;;;;5111507;28;20037;-70
2022/06/10 09:38:09;;;;;;;29.73;21.92;;;17.60;99.90;;;;;;5111461;28;20031;-69
2022/06/10 09:40:51;;;;;;;26.92;20.40;;;17.60;99.90;;;;;;5111913;28;20050;-69
2022/06/10 09:43:44;;;;;;;26.02;20.77;;;17.60;99.90;;;;;;5110223;28;20026;-70
2022/06/10 09:46:24;;;;;;;29.75;21.90;;;17.70;99.90;;;;;;5111463;28;20420;-69
2022/06/10 09:49:14;;;;;;;27.33;21.83;;;17.80;99.90;;;;;;5111367;27;20028;-70
2022/06/10 09:51:52;;;;;;;26.40;21.45;;;17.90;99.90;;;;;;5092535;28;20027;-70
2022/06/10 09:54:33;;;;;;;30.25;20.92;;;17.90;99.90;;;;;;5089154;28;20044;-69
2022/06/10 09:57:37;;;;;;;26.25;19.33;;;17.90;99.90;;;;;;5090551;28;20493;-69
2022/06/10 10:00:21;;;;;;;26.88;19.02;;;17.90;99.90;;;;;;5074171;28;20367;-73
2022/06/10 10:03:33;;;;;;;21.33;16.75;;;18.00;99.90;;;;;;5090836;28;20028;-70
2022/06/10 10:06:24;;;;;;;20.95;17.25;;;18.00;99.90;;;;;;5072828;28;20024;-72
2022/06/10 10:08:53;;;;;;;21.70;16.67;;;18.10;99.90;;;;;;5090881;28;20024;-70
2022/06/10 10:11:43;;;;;;;23.17;17.33;;;18.20;99.90;;;;;;5090413;28;20387;-70
2022/06/10 10:14:33;;;;;;;19.50;16.83;;;18.40;99.90;;;;;;5090554;28;20016;-71
2022/06/10 10:17:20;;;;;;;27.55;17.33;;;18.60;99.90;;;;;;5090605;28;20024;-69
2022/06/10 10:20:24;;;;;;;23.00;15.93;;;18.80;99.90;;;;;;5090794;28;20020;-69
2022/06/10 10:23:02;;;;;;;18.85;15.43;;;19.00;99.90;;;;;;5089339;28;20461;-72
2022/06/10 10:25:29;;;;;;;22.38;15.30;;;19.10;99.90;;;;;;5090533;28;20024;-69
2022/06/10 10:27:56;;;;;;;17.70;12.98;;;19.20;99.90;;;;;;5090567;28;20106;-72
2022/06/10 10:30:27;;;;;;;17.17;13.05;;;19.30;99.90;;;;;;5090564;28;20436;-70
2022/06/10 10:33:02;;;;;;;15.57;13.40;;;19.50;99.90;;;;;;5090117;28;20109;-70
2022/06/10 10:35:37;;;;;;;14.32;11.57;;;19.80;99.90;;;;;;5089525;28;20036;-68
2022/06/10 10:38:10;;;;;;;14.65;12.13;;;20.00;99.90;;;;;;5089848;28;20035;-69
2022/06/10 10:40:43;;;;;;;16.10;11.60;;;20.10;99.90;;;;;;5089761;28;20031;-70
2022/06/10 10:43:20;;;;;;;15.55;11.80;;;20.20;99.90;;;;;;5089855;28;20022;-71
2022/06/10 10:46:05;;;;;;;14.60;10.95;;;20.40;99.90;;;;;;5089873;28;20031;-71
2022/06/10 10:48:37;;;;;;;12.95;10.73;;;20.60;99.90;;;;;;5090001;28;20024;-71
2022/06/10 10:51:11;;;;;;;14.65;10.65;;;20.60;99.90;;;;;;5102955;28;20232;-70
2022/06/10 10:53:41;;;;;;;14.13;10.50;;;20.60;99.90;;;;;;5140631;27;20051;-70
2022/06/10 10:56:11;;;;;;;16.85;11.18;;;20.50;99.90;;;;;;5151262;27;20474;-71
2022/06/10 10:58:54;;;;;;;13.43;10.30;;;20.50;99.90;;;;;;5151171;27;20011;-71
2022/06/10 11:01:45;;;;;;;12.90;10.82;;;20.40;99.90;;;;;;5151227;27;20027;-71
2022/06/10 11:04:26;;;;;;;14.45;10.10;;;20.40;99.90;;;;;;5151313;27;20037;-71
2022/06/10 11:07:11;;;;;;;12.30;10.45;;;20.40;99.90;;;;;;5151010;27;20074;-70
2022/06/10 11:09:45;;;;;;;11.35;9.35;;;20.30;99.90;;;;;;5151228;27;20437;-72
2022/06/10 11:12:16;;;;;;;13.02;10.40;;;20.30;99.90;;;;;;5151282;27;20019;-73
2022/06/10 11:14:47;;;;;;;12.95;9.57;;;20.30;99.90;;;;;;5150856;27;20109;-72
2022/06/10 11:17:13;;;;;;;12.05;9.13;;;20.30;99.90;;;;;;5151127;27;20061;-71
2022/06/10 11:19:55;;;;;;;10.70;8.68;;;20.30;99.90;;;;;;5151587;27;20438;-71
2022/06/10 11:22:32;;;;;;;15.00;8.90;;;20.20;99.90;;;;;;5151071;27;20389;-70
2022/06/10 11:25:03;;;;;;;12.70;9.43;;;20.20;99.90;;;;;;5151076;27;20023;-68
2022/06/10 11:27:35;;;;;;;17.35;9.38;;;20.20;99.90;;;;;;5150968;27;20022;-70
2022/06/10 11:30:10;;;;;;;12.43;8.88;;;20.20;99.90;;;;;;5151369;27;20023;-70
2022/06/10 11:32:48;;;;;;;10.73;8.93;;;20.20;99.90;;;;;;5150993;27;20134;-69
2022/06/10 11:35:31;;;;;;;9.77;8.23;;;20.30;99.90;;;;;;5153495;27;20106;-72
2022/06/10 11:38:21;;;;;;;23.27;8.57;;;20.40;99.90;;;;;;5154646;27;20434;-70
2022/06/10 11:40:46;;;;;;;9.23;7.88;;;20.40;99.90;;;;;;5154982;27;20026;-70
2022/06/10 11:43:29;;;;;;;10.18;8.00;;;20.50;99.90;;;;;;5154566;27;20045;-70
2022/06/10 11:46:01;;;;;;;9.05;7.90;;;20.50;99.90;;;;;;5154844;27;20471;-70
2022/06/10 11:48:45;;;;;;;8.65;7.28;;;20.60;99.90;;;;;;5154693;27;20389;-71
2022/06/10 11:51:14;;;;;;;8.90;7.18;;;20.70;99.90;;;;;;5140262;27;20106;-70
2022/06/10 11:53:53;;;;;;;11.65;7.30;;;20.70;99.90;;;;;;5133594;27;20057;-71
2022/06/10 12:02:02;;;;;;;12.70;6.45;;;20.90;99.90;;;;;;5133900;27;20311;-67
2022/06/10 12:04:35;;;;;;;10.90;6.45;;;21.00;99.90;;;;;;5133545;27;20126;-68
2022/06/10 12:07:06;;;;;;;10.02;6.80;;;21.10;99.90;;;;;;5133651;27;20553;-68
2022/06/10 12:09:38;;;;;;;8.07;6.68;;;21.10;99.90;;;;;;5115162;27;20027;-69
2022/06/10 12:12:16;;;;;;;10.57;7.05;;;21.10;99.90;;;;;;5131986;27;20047;-69
2022/06/10 12:14:51;;;;;;;7.50;6.05;;;21.20;99.90;;;;;;5132705;27;20023;-68
2022/06/10 12:17:29;;;;;;;8.55;7.03;;;21.20;99.90;;;;;;5130027;27;20049;-68
2022/06/10 12:20:16;;;;;;;7.50;6.25;;;21.10;99.90;;;;;;5131925;27;20027;-67
2022/06/10 12:22:42;;;;;;;7.88;5.75;;;21.10;99.90;;;;;;5132324;27;20023;-68
2022/06/10 12:25:20;;;;;;;12.27;5.93;;;21.10;99.90;;;;;;5132117;27;20042;-67
2022/06/10 12:27:53;;;;;;;;;;;21.20;99.90;;;;;;5132465;27;20019;-67
2022/06/10 12:30:42;;;;;;;8.98;4.80;;;21.50;99.90;;;;;;5132357;27;19950;-68
2022/06/10 12:33:28;;;;;;;9.20;5.13;;;21.60;99.90;;;;;;5115081;27;20043;-67
2022/06/10 12:35:56;;;;;;;12.63;5.30;;;21.70;99.90;;;;;;5133204;27;20035;-67
2022/06/10 12:38:30;;;;;;;6.53;5.18;;;21.70;99.90;;;;;;5132741;27;20057;-68
2022/06/10 12:41:07;;;;;;;6.82;4.88;;;21.80;99.90;;;;;;5133109;27;20027;-68
2022/06/10 12:43:47;;;;;;;8.68;4.43;;;21.90;99.90;;;;;;5132768;27;20030;-68
2022/06/10 12:46:30;;;;;;;6.72;5.45;;;21.90;99.90;;;;;;5132323;27;20023;-68
2022/06/10 12:48:56;;;;;;;6.32;4.90;;;22.10;99.90;;;;;;5132908;27;20031;-67
2022/06/10 12:51:44;;;;;;;6.00;4.53;;;22.30;99.90;;;;;;5148136;27;20050;-69
2022/06/10 12:54:47;;;;;;;6.20;4.30;;;22.70;99.90;;;;;;5153502;27;20043;-68
2022/06/10 12:57:35;;;;;;;6.10;4.30;;;22.60;99.90;;;;;;5153369;27;20031;-68
2022/06/10 13:00:22;;;;;;;7.78;4.43;;;22.50;99.90;;;;;;5153366;27;20023;-68
2022/06/10 13:03:16;;;;;;;7.82;4.22;;;22.40;99.90;;;;;;5152938;27;20059;-70
2022/06/10 13:05:48;;;;;;;8.18;4.13;;;22.30;99.90;;;;;;5153075;27;20022;-72
2022/06/10 13:08:35;;;;;;;7.80;3.75;;;22.30;99.90;;;;;;5153355;27;20057;-70
2022/06/10 13:11:03;;;;;;;5.70;3.90;;;22.30;99.90;;;;;;5153050;27;20500;-70
2022/06/10 13:13:29;;;;;;;5.35;3.35;;;22.20;99.90;;;;;;5153116;27;20041;-70
2022/06/10 13:16:16;;;;;;;5.20;3.40;;;22.10;99.90;;;;;;5152739;27;20525;-69
2022/06/10 13:18:58;;;;;;;3.67;2.90;;;22.00;99.90;;;;;;5152724;27;20098;-70
2022/06/10 13:21:30;;;;;;;8.85;2.95;;;22.00;99.90;;;;;;5152823;27;20022;-69
2022/06/10 13:23:58;;;;;;;6.00;3.15;;;21.90;99.90;;;;;;5152825;27;20058;-69